createdAt,value
2018-08-30T00:02:59.442Z,11.65
2018-08-30T00:07:52.719Z,13.50
2018-08-30T00:12:45.931Z,13.47
2018-08-30T00:17:39.183Z,13.10
2018-08-30T00:22:32.456Z,12.10
2018-08-30T00:27:25.693Z,11.43
2018-08-30T00:32:18.987Z,11.03
2018-08-30T00:37:12.213Z,10.90
2018-08-30T00:42:06.154Z,11.83
2018-08-30T00:46:59.397Z,13.28
2018-08-30T00:51:52.660Z,15.58
2018-08-30T00:56:45.922Z,15.78
2018-08-30T01:01:39.246Z,16.10
2018-08-30T01:06:32.558Z,16.85
2018-08-30T01:11:25.794Z,18.48
2018-08-30T01:16:19.104Z,20.88
2018-08-30T01:21:12.365Z,21.73
2018-08-30T01:26:05.925Z,23.42
2018-08-30T01:30:59.174Z,25.45
2018-08-30T01:35:52.468Z,25.85
2018-08-30T01:40:45.670Z,25.30
2018-08-30T01:45:38.996Z,25.25
2018-08-30T01:50:32.270Z,26.97
2018-08-30T01:55:25.506Z,27.27
2018-08-30T02:00:18.752Z,24.27
2018-08-30T02:05:12.014Z,27.22
2018-08-30T02:10:05.448Z,26.90
2018-08-30T02:14:58.778Z,27.17
2018-08-30T02:19:52.574Z,26.87
2018-08-30T02:24:45.836Z,26.97
2018-08-30T02:29:39.146Z,26.57
2018-08-30T02:34:32.399Z,23.98
2018-08-30T02:39:25.620Z,27.80
2018-08-30T02:44:18.908Z,24.27
2018-08-30T02:49:12.226Z,28.32
2018-08-30T02:54:06.144Z,29.15
2018-08-30T02:58:59.429Z,25.02
2018-08-30T03:03:52.678Z,24.12
2018-08-30T03:08:46.484Z,25.65
2018-08-30T03:13:39.806Z,25.57
2018-08-30T03:18:33.094Z,27.27
2018-08-30T03:23:26.524Z,27.77
2018-08-30T03:28:20.416Z,27.90
2018-08-30T03:33:13.705Z,29.80
2018-08-30T03:38:06.944Z,27.80
2018-08-30T03:43:00.200Z,29.90
2018-08-30T03:47:53.462Z,25.43
2018-08-30T03:52:46.712Z,26.97
2018-08-30T03:57:39.942Z,32.35
2018-08-30T04:02:33.168Z,29.00
2018-08-30T04:07:26.437Z,27.52
2018-08-30T04:12:19.715Z,29.50
2018-08-30T04:17:13.048Z,26.40
2018-08-30T04:22:06.756Z,28.80
2018-08-30T04:27:00.073Z,29.67
2018-08-30T04:31:53.317Z,27.80
2018-08-30T04:36:46.620Z,29.25
2018-08-30T04:41:39.859Z,31.40
2018-08-30T04:46:33.778Z,32.80
2018-08-30T04:51:27.073Z,32.35
2018-08-30T04:56:20.340Z,30.37
2018-08-30T05:01:13.610Z,30.32
2018-08-30T05:06:06.856Z,30.32
2018-08-30T05:11:00.169Z,32.40
2018-08-30T05:15:53.460Z,32.20
2018-08-30T05:20:46.781Z,30.65
2018-08-30T05:25:40.013Z,32.85
2018-08-30T05:30:33.263Z,29.90
2018-08-30T05:35:26.518Z,28.77
2018-08-30T05:40:19.968Z,32.53
2018-08-30T05:45:13.269Z,28.62
2018-08-30T05:50:07.016Z,28.07
2018-08-30T05:55:00.247Z,27.00
2018-08-30T05:59:53.524Z,30.02
2018-08-30T06:04:46.744Z,28.25
2018-08-30T06:09:40.009Z,28.38
2018-08-30T06:14:33.266Z,29.42
2018-08-30T06:19:26.592Z,26.48
2018-08-30T06:24:19.911Z,25.50
2018-08-30T06:29:13.416Z,26.05
2018-08-30T06:34:06.745Z,26.65
2018-08-30T06:39:00.011Z,27.52
2018-08-30T06:43:53.635Z,27.05
2018-08-30T06:48:46.941Z,26.77
2018-08-30T06:53:40.925Z,25.65
2018-08-30T06:58:34.288Z,26.50
2018-08-30T07:03:27.414Z,21.10
2018-08-30T07:08:20.641Z,25.68
2018-08-30T07:13:14.248Z,24.10
2018-08-30T07:18:07.582Z,19.45
2018-08-30T07:23:01.446Z,17.98
2018-08-30T07:27:54.858Z,22.17
2018-08-30T07:32:48.267Z,20.80
2018-08-30T07:37:41.549Z,17.20
2018-08-30T07:42:34.799Z,15.68
2018-08-30T07:47:28.182Z,14.85
2018-08-30T07:52:21.520Z,13.70
2018-08-30T07:57:14.836Z,13.58
2018-08-30T08:02:08.241Z,16.23
2018-08-30T08:07:01.704Z,13.28
2018-08-30T08:11:55.017Z,12.95
2018-08-30T08:16:49.236Z,13.72
2018-08-30T08:21:42.565Z,8.85
2018-08-30T08:26:35.958Z,8.48
2018-08-30T08:31:29.239Z,8.35
2018-08-30T08:36:22.520Z,10.85
2018-08-30T08:41:15.765Z,7.10
2018-08-30T08:46:09.071Z,7.85
2018-08-30T08:51:02.417Z,7.35
2018-08-30T08:55:55.654Z,6.40
2018-08-30T09:00:48.929Z,7.45
2018-08-30T09:05:42.265Z,7.28
2018-08-30T09:10:35.524Z,6.08
2018-08-30T09:15:28.746Z,7.20
2018-08-30T09:20:22.027Z,7.35
2018-08-30T09:25:15.346Z,5.80
2018-08-30T09:30:08.734Z,7.55
2018-08-30T09:35:04.990Z,8.45
2018-08-30T09:39:59.035Z,6.30
2018-08-30T09:44:52.357Z,8.53
2018-08-30T09:49:45.654Z,9.28
2018-08-30T09:54:38.980Z,5.78
2018-08-30T09:59:32.240Z,8.53
2018-08-30T10:04:25.519Z,6.70
2018-08-30T10:09:18.832Z,5.55
2018-08-30T10:14:12.115Z,7.00
2018-08-30T10:19:05.496Z,4.67
2018-08-30T10:23:58.728Z,5.97
2018-08-30T10:28:52.001Z,6.70
2018-08-30T10:33:45.333Z,7.85
2018-08-30T10:38:38.626Z,5.87
2018-08-30T10:43:31.953Z,7.87
2018-08-30T10:48:25.286Z,6.70
2018-08-30T10:53:18.589Z,7.90
2018-08-30T10:58:11.852Z,7.35
2018-08-30T11:03:05.289Z,5.97
2018-08-30T11:07:58.548Z,5.25
2018-08-30T11:12:51.920Z,8.50
2018-08-30T11:17:45.102Z,9.78
2018-08-30T11:22:38.355Z,5.87
2018-08-30T11:27:31.680Z,7.67
2018-08-30T11:32:24.952Z,10.08
2018-08-30T11:37:18.263Z,6.08
2018-08-30T11:42:11.585Z,4.90
2018-08-30T11:47:04.864Z,6.37
2018-08-30T11:51:58.123Z,6.80
2018-08-30T11:56:51.378Z,6.83
2018-08-30T12:01:44.684Z,5.28
2018-08-30T12:06:38.065Z,5.80
2018-08-30T12:11:31.480Z,6.47
2018-08-30T12:16:24.758Z,6.47
2018-08-30T12:21:18.095Z,4.15
2018-08-30T12:26:11.421Z,5.97
2018-08-30T12:31:04.847Z,3.90
2018-08-30T12:35:58.266Z,3.72
2018-08-30T12:40:51.493Z,5.58
2018-08-30T12:45:44.826Z,10.93
2018-08-30T12:50:38.261Z,3.75
2018-08-30T12:55:31.468Z,6.12
2018-08-30T13:00:25.033Z,4.28
2018-08-30T13:05:18.361Z,4.03
2018-08-30T13:10:11.718Z,5.20
2018-08-30T13:15:06.369Z,4.78
2018-08-30T13:19:59.550Z,4.60
2018-08-30T13:24:53.117Z,4.30
2018-08-30T13:29:46.309Z,7.05
2018-08-30T13:34:39.642Z,3.80
2018-08-30T13:39:32.989Z,6.83
2018-08-30T13:44:26.240Z,3.12
2018-08-30T13:49:19.396Z,4.85
2018-08-30T13:54:12.982Z,3.85
2018-08-30T13:59:06.219Z,3.40
2018-08-30T14:03:59.513Z,5.70
2018-08-30T14:08:52.702Z,6.85
2018-08-30T14:13:46.021Z,6.95
2018-08-30T14:18:39.078Z,5.50
2018-08-30T14:23:32.450Z,8.60
2018-08-30T14:28:25.766Z,6.10
2018-08-30T14:33:19.443Z,2.95
2018-08-30T14:38:12.722Z,4.83
2018-08-30T14:43:06.028Z,4.58
2018-08-30T14:47:59.422Z,4.75
2018-08-30T14:52:52.573Z,3.95
2018-08-30T14:57:45.806Z,5.37
2018-08-30T15:02:39.169Z,6.05
2018-08-30T15:07:32.443Z,3.85
2018-08-30T15:12:25.774Z,6.00
2018-08-30T15:17:19.062Z,5.83
2018-08-30T15:22:12.363Z,3.25
2018-08-30T15:27:05.613Z,3.07
2018-08-30T15:31:59.527Z,4.80
2018-08-30T18:16:29.269Z,4.20
2018-08-30T18:21:22.501Z,5.40
2018-08-30T18:26:15.712Z,5.25
2018-08-30T18:31:08.950Z,2.95
2018-08-30T18:36:02.154Z,5.35
2018-08-30T18:40:55.456Z,4.83
2018-08-30T18:45:49.099Z,5.35
2018-08-30T18:50:43.404Z,7.08
2018-08-30T18:55:36.627Z,5.22
2018-08-30T19:00:29.858Z,4.42
2018-08-30T19:05:23.082Z,6.15
2018-08-30T19:10:16.384Z,5.85
2018-08-30T19:15:15.244Z,6.03
2018-08-30T19:20:08.548Z,7.53
2018-08-30T19:25:07.266Z,3.08
2018-08-30T19:30:05.985Z,5.40
2018-08-30T19:35:04.800Z,5.80
2018-08-30T19:39:58.038Z,5.03
2018-08-30T19:44:51.312Z,6.20
2018-08-30T19:49:44.578Z,5.55
2018-08-30T19:54:37.884Z,4.70
2018-08-30T19:59:31.146Z,4.72
2018-08-30T20:04:24.367Z,7.33
2018-08-30T20:09:17.670Z,4.97
2018-08-30T20:14:10.891Z,5.70
2018-08-30T20:19:04.180Z,5.17
2018-08-30T20:23:57.436Z,5.10
2018-08-30T20:28:50.654Z,7.97
2018-08-30T20:33:43.970Z,6.37
2018-08-30T20:38:37.230Z,6.03
2018-08-30T20:43:30.564Z,6.97
2018-08-30T20:48:23.834Z,7.62
2018-08-30T20:53:17.084Z,7.47
2018-08-30T20:58:10.459Z,7.15
2018-08-30T21:03:03.729Z,6.78
2018-08-30T21:07:56.967Z,5.85
2018-08-30T21:12:50.300Z,6.65
2018-08-30T21:17:43.537Z,6.45
2018-08-30T21:22:36.837Z,8.28
2018-08-30T21:27:30.065Z,7.20
2018-08-30T21:32:23.298Z,5.62
2018-08-30T21:37:16.572Z,10.38
2018-08-30T21:42:09.947Z,11.57
2018-08-30T21:47:03.236Z,12.50
2018-08-30T21:51:56.563Z,8.95
2018-08-30T21:56:49.823Z,10.65
2018-08-30T22:01:43.103Z,8.60
2018-08-30T22:06:36.353Z,8.95
2018-08-30T22:11:29.572Z,8.03
2018-08-30T22:16:22.887Z,9.00
2018-08-30T22:21:16.169Z,6.67
2018-08-30T22:26:09.534Z,7.10
2018-08-30T22:31:02.760Z,9.20
2018-08-30T22:35:58.133Z,14.47
2018-08-30T22:40:52.180Z,7.80
2018-08-30T22:45:45.374Z,12.98
2018-08-30T22:50:51.293Z,13.65
2018-08-30T22:55:47.066Z,7.50
2018-08-30T23:00:40.378Z,6.10
2018-08-30T23:05:33.690Z,8.93
2018-08-30T23:10:26.955Z,11.73
2018-08-30T23:15:20.220Z,8.28
2018-08-30T23:20:13.444Z,9.00
2018-08-30T23:25:06.830Z,11.85
2018-08-30T23:30:00.100Z,10.55
2018-08-30T23:34:53.336Z,10.50
2018-08-30T23:39:46.976Z,6.62
2018-08-30T23:44:40.522Z,8.15
2018-08-30T23:49:33.803Z,6.22
2018-08-30T23:54:27.062Z,8.98
2018-08-30T23:59:37.383Z,6.28
